Chiva, Spain
Current Conditions -  °F | °C
As of 2:00 PM on Friday 19 Dec 2014 (Local Time) from LEVC Reporting Station
Clear Clear  
Wind Chill: 66°   Ceiling: Unl
Heat Index: 66°   Visibility: 6mi
Dew Point: 52°   Wind: 3mph
Humidity: 60%   Direction: 100°E
Pressure: 30.3"   Gusts: NA
Location:  39.47°N, 0.72°W
Report Text: LEVC 191300Z 10003KT 070V140 CAVOK 19/11 Q1026 NOSIG
Loading
Personal Weather Stations






























Interactive Weather Map New forecast layout! Learn more

10-Day Weather Forecast

Advertisements
Track Severe Weather on mobile